createdAt,value
2023-03-29T00:01:01.226Z,20.62
2023-03-29T00:02:03.224Z,20.62
2023-03-29T00:03:05.160Z,20.64
2023-03-29T00:04:07.310Z,20.66
2023-03-29T00:05:09.333Z,20.68
2023-03-29T00:06:11.730Z,20.69
2023-03-29T00:07:13.515Z,20.69
2023-03-29T00:08:15.329Z,20.67
2023-03-29T00:09:17.151Z,20.66
2023-03-29T00:10:19.050Z,20.67
2023-03-29T00:11:20.848Z,20.65
2023-03-29T00:12:22.642Z,20.64
2023-03-29T00:13:24.438Z,20.65
2023-03-29T00:14:26.256Z,20.65
2023-03-29T00:15:28.132Z,20.65
2023-03-29T00:16:29.947Z,20.62
2023-03-29T00:17:31.760Z,20.60
2023-03-29T00:18:33.607Z,20.59
2023-03-29T00:19:35.429Z,20.57
2023-03-29T00:20:37.268Z,20.55
2023-03-29T00:21:39.066Z,20.54
2023-03-29T00:22:40.872Z,20.53
2023-03-29T00:23:42.665Z,20.52
2023-03-29T00:24:44.501Z,20.51
2023-03-29T00:25:46.276Z,20.51
2023-03-29T00:26:48.075Z,20.50
2023-03-29T00:27:49.881Z,20.49
2023-03-29T00:28:51.662Z,20.48
2023-03-29T00:29:53.512Z,20.47
2023-03-29T00:30:55.316Z,20.46
2023-03-29T00:31:57.148Z,20.45
2023-03-29T00:32:58.925Z,20.47
2023-03-29T00:34:00.682Z,20.47
2023-03-29T00:35:02.501Z,20.46
2023-03-29T00:36:04.531Z,20.45
2023-03-29T00:37:06.309Z,20.43
2023-03-29T00:38:08.096Z,20.44
2023-03-29T00:39:09.896Z,20.43
2023-03-29T00:40:12.326Z,20.41
2023-03-29T00:41:14.111Z,20.41
2023-03-29T00:42:15.917Z,20.41
2023-03-29T00:43:17.735Z,20.43
2023-03-29T00:44:19.558Z,20.42
2023-03-29T00:45:21.528Z,20.41
2023-03-29T00:46:23.422Z,20.39
2023-03-29T00:47:25.215Z,20.41
2023-03-29T00:48:27.091Z,20.43
2023-03-29T00:49:28.768Z,20.43
2023-03-29T00:50:30.593Z,20.44
2023-03-29T00:51:32.401Z,20.46
2023-03-29T00:52:34.197Z,20.47
2023-03-29T00:53:36.008Z,20.47
2023-03-29T00:54:37.795Z,20.46
2023-03-29T00:55:39.620Z,20.45
2023-03-29T00:56:41.455Z,20.44
2023-03-29T00:57:43.363Z,20.43
2023-03-29T00:58:45.139Z,20.43
2023-03-29T00:59:46.923Z,20.44
2023-03-29T01:00:48.750Z,20.44
2023-03-29T01:01:51.628Z,20.44
2023-03-29T01:02:53.522Z,20.43
2023-03-29T01:03:55.366Z,20.41
2023-03-29T01:04:57.109Z,20.43
2023-03-29T01:05:58.955Z,20.44
2023-03-29T01:07:00.994Z,20.44
2023-03-29T01:08:02.955Z,20.45
2023-03-29T01:09:04.776Z,20.48
2023-03-29T01:10:06.742Z,20.51
2023-03-29T01:11:08.581Z,20.52
2023-03-29T01:12:10.398Z,20.53
2023-03-29T01:13:12.181Z,20.53
2023-03-29T01:14:13.968Z,20.53
2023-03-29T01:15:15.771Z,20.52
2023-03-29T01:16:17.938Z,20.51
2023-03-29T01:17:19.720Z,20.52
2023-03-29T01:18:21.544Z,20.49
2023-03-29T01:19:23.316Z,20.48
2023-03-29T01:20:25.111Z,20.46
2023-03-29T01:21:27.119Z,20.45
2023-03-29T01:22:28.910Z,20.45
2023-03-29T01:23:30.739Z,20.43
2023-03-29T01:24:32.558Z,20.45
2023-03-29T01:25:34.360Z,20.46
2023-03-29T01:26:36.198Z,20.45
2023-03-29T01:27:38.006Z,20.46
2023-03-29T01:28:39.795Z,20.45
2023-03-29T01:29:41.594Z,20.45
2023-03-29T01:30:43.391Z,20.42
2023-03-29T01:31:45.276Z,20.41
2023-03-29T01:32:47.057Z,20.39
2023-03-29T01:33:48.816Z,20.39
2023-03-29T01:34:50.668Z,20.38
2023-03-29T01:35:52.515Z,20.37
2023-03-29T01:36:54.401Z,20.36
2023-03-29T01:37:56.192Z,20.36
2023-03-29T01:38:58.013Z,20.36
2023-03-29T01:39:59.827Z,20.35
2023-03-29T01:41:01.760Z,20.34
2023-03-29T01:42:03.675Z,20.36
2023-03-29T01:43:05.469Z,20.35
2023-03-29T01:44:07.271Z,20.34
2023-03-29T01:45:09.113Z,20.33
2023-03-29T01:46:11.320Z,20.35
2023-03-29T01:47:13.164Z,20.36
2023-03-29T01:48:14.972Z,20.36
2023-03-29T01:49:16.757Z,20.35
2023-03-29T01:50:18.572Z,20.35
2023-03-29T01:51:20.402Z,20.36
2023-03-29T01:52:22.334Z,20.35
2023-03-29T01:53:24.163Z,20.34
2023-03-29T01:54:25.932Z,20.36
2023-03-29T01:55:27.735Z,20.35
2023-03-29T01:56:29.601Z,20.35
2023-03-29T01:57:31.522Z,20.35
2023-03-29T01:58:33.319Z,20.34
2023-03-29T01:59:35.118Z,20.31
2023-03-29T02:00:36.918Z,20.28
2023-03-29T02:01:38.784Z,20.25
2023-03-29T02:02:40.870Z,20.23
2023-03-29T02:03:42.776Z,20.22
2023-03-29T02:04:44.777Z,20.19
2023-03-29T02:05:46.579Z,20.17
2023-03-29T02:06:48.369Z,20.16
2023-03-29T02:07:50.209Z,20.15
2023-03-29T02:08:52.019Z,20.14
2023-03-29T02:09:53.825Z,20.12
2023-03-29T02:10:55.620Z,20.12
2023-03-29T02:11:57.420Z,20.11
2023-03-29T02:12:59.264Z,20.11
2023-03-29T02:14:01.079Z,20.11
2023-03-29T02:15:02.884Z,20.10
2023-03-29T02:16:04.675Z,20.11
2023-03-29T02:17:06.474Z,20.13
2023-03-29T02:18:08.354Z,20.14
2023-03-29T02:19:10.216Z,20.14
2023-03-29T02:20:12.316Z,20.17
2023-03-29T02:21:14.117Z,20.17
2023-03-29T02:22:15.918Z,20.20
2023-03-29T02:23:17.763Z,20.24
2023-03-29T02:24:19.584Z,20.26
2023-03-29T02:25:21.362Z,20.27
2023-03-29T02:26:23.161Z,20.28
2023-03-29T02:27:24.969Z,20.28
2023-03-29T02:28:26.708Z,20.27
2023-03-29T02:29:28.484Z,20.26
2023-03-29T02:30:30.281Z,20.26
2023-03-29T02:31:32.141Z,20.25
2023-03-29T02:32:33.916Z,20.24
2023-03-29T02:33:35.735Z,20.23
2023-03-29T02:34:37.420Z,20.21
2023-03-29T02:35:39.290Z,20.21
2023-03-29T02:36:41.130Z,20.23
2023-03-29T02:37:42.938Z,20.23
2023-03-29T02:38:44.760Z,20.23
2023-03-29T02:39:46.549Z,20.23
2023-03-29T02:40:48.350Z,20.23
2023-03-29T02:41:50.160Z,20.25
2023-03-29T02:42:51.955Z,20.26
2023-03-29T02:43:53.784Z,20.24
2023-03-29T02:44:55.569Z,20.24
2023-03-29T02:45:57.378Z,20.25
2023-03-29T02:46:59.259Z,20.27
2023-03-29T02:48:01.143Z,20.27
2023-03-29T02:49:02.925Z,20.30
2023-03-29T02:50:04.712Z,20.29
2023-03-29T02:51:06.514Z,20.29
2023-03-29T02:52:08.366Z,20.31
2023-03-29T02:53:10.124Z,20.30
2023-03-29T02:54:11.967Z,20.33
2023-03-29T02:55:13.768Z,20.34
2023-03-29T02:56:15.551Z,20.34
2023-03-29T02:57:17.429Z,20.37
2023-03-29T02:58:19.256Z,20.39
2023-03-29T02:59:21.098Z,20.39
2023-03-29T03:00:22.897Z,20.38
2023-03-29T03:01:24.806Z,20.37
2023-03-29T03:02:26.630Z,20.38
2023-03-29T03:03:28.577Z,20.38
2023-03-29T03:04:30.456Z,20.37
2023-03-29T03:05:32.284Z,20.38
2023-03-29T03:06:34.095Z,20.36
2023-03-29T03:07:35.894Z,20.34
2023-03-29T03:08:37.704Z,20.35
2023-03-29T03:09:39.539Z,20.34
2023-03-29T03:10:41.347Z,20.34
2023-03-29T03:11:43.143Z,20.34
2023-03-29T03:12:44.995Z,20.33
2023-03-29T03:13:46.784Z,20.33
2023-03-29T03:14:48.637Z,20.32
2023-03-29T03:15:50.482Z,20.31
2023-03-29T03:16:52.274Z,20.32
2023-03-29T03:17:54.145Z,20.31
2023-03-29T03:18:55.992Z,20.31
2023-03-29T03:19:57.883Z,20.32
2023-03-29T03:20:59.806Z,20.31
2023-03-29T03:22:01.780Z,20.32
2023-03-29T03:23:03.635Z,20.32
2023-03-29T03:24:05.418Z,20.32
2023-03-29T03:25:07.233Z,20.25
2023-03-29T03:26:09.045Z,20.28
2023-03-29T03:27:10.848Z,20.29
2023-03-29T03:28:12.632Z,20.26
2023-03-29T03:29:14.432Z,20.27
2023-03-29T03:30:16.612Z,20.27
2023-03-29T03:31:18.435Z,20.26
2023-03-29T03:32:20.201Z,20.28
2023-03-29T03:33:22.100Z,20.28
2023-03-29T03:34:23.892Z,20.28
2023-03-29T03:35:25.772Z,20.27
2023-03-29T03:36:27.526Z,20.29
2023-03-29T03:37:29.320Z,20.30
2023-03-29T03:38:31.115Z,20.31
2023-03-29T03:39:32.903Z,20.31
2023-03-29T03:40:34.751Z,20.31
2023-03-29T03:41:36.538Z,20.33
2023-03-29T03:42:38.324Z,20.34
2023-03-29T03:43:40.118Z,20.35
2023-03-29T03:44:41.908Z,20.34
2023-03-29T03:45:43.777Z,20.34
2023-03-29T03:46:45.536Z,20.34
2023-03-29T03:47:47.456Z,20.35
2023-03-29T03:48:49.202Z,20.34
2023-03-29T03:49:51.005Z,20.33
2023-03-29T03:50:52.834Z,20.31
2023-03-29T03:51:55.996Z,20.30
2023-03-29T03:52:57.829Z,20.29
2023-03-29T03:53:59.617Z,20.29
2023-03-29T03:55:01.416Z,20.31
2023-03-29T03:56:03.239Z,20.31
2023-03-29T03:57:05.043Z,20.34
2023-03-29T03:58:06.811Z,20.33
2023-03-29T03:59:08.604Z,20.33
2023-03-29T04:00:10.385Z,20.33
2023-03-29T04:01:12.191Z,20.33
2023-03-29T04:02:14.038Z,20.32
2023-03-29T04:03:15.928Z,20.33
2023-03-29T04:04:17.918Z,20.34
2023-03-29T04:05:19.677Z,20.32
2023-03-29T04:06:21.521Z,20.30
2023-03-29T04:07:23.343Z,20.28
2023-03-29T04:08:25.119Z,20.27
2023-03-29T04:09:26.904Z,20.28
2023-03-29T04:10:28.696Z,20.24
2023-03-29T04:11:30.526Z,20.24
2023-03-29T04:12:32.337Z,20.22
2023-03-29T04:13:34.111Z,20.22
2023-03-29T04:14:35.820Z,20.21
2023-03-29T04:15:37.618Z,20.21
2023-03-29T04:16:39.530Z,20.19
2023-03-29T04:17:41.437Z,20.21
2023-03-29T04:18:43.273Z,20.22
2023-03-29T04:19:45.072Z,20.22
2023-03-29T04:20:46.882Z,20.20
2023-03-29T04:21:48.716Z,20.23
2023-03-29T04:22:50.496Z,20.23
2023-03-29T04:23:52.286Z,20.24
2023-03-29T04:24:54.063Z,20.25
2023-03-29T04:25:55.890Z,20.26
2023-03-29T04:26:57.684Z,20.27
2023-03-29T04:27:59.462Z,20.27
2023-03-29T04:29:01.250Z,20.27
2023-03-29T04:30:03.042Z,20.28
2023-03-29T04:31:05.047Z,20.31
2023-03-29T04:32:07.178Z,20.31
2023-03-29T04:33:09.004Z,20.32
2023-03-29T04:34:10.877Z,20.35
2023-03-29T04:35:12.651Z,20.35
2023-03-29T04:36:15.093Z,20.36
2023-03-29T04:37:16.882Z,20.38
2023-03-29T04:38:18.667Z,20.37
2023-03-29T04:39:20.450Z,20.36
2023-03-29T04:40:22.260Z,20.35
2023-03-29T04:41:24.062Z,20.34
2023-03-29T04:42:25.976Z,20.34
2023-03-29T04:43:27.759Z,20.35
2023-03-29T04:44:29.550Z,20.36
2023-03-29T04:45:31.358Z,20.36
2023-03-29T04:46:33.209Z,20.41
2023-03-29T04:47:35.322Z,20.43
2023-03-29T04:48:37.078Z,20.45
2023-03-29T04:49:38.861Z,20.45
2023-03-29T04:50:40.639Z,20.47
2023-03-29T04:51:42.415Z,20.48
2023-03-29T04:52:44.204Z,20.50
2023-03-29T04:53:45.969Z,20.52
2023-03-29T04:54:47.730Z,20.50
2023-03-29T04:55:49.539Z,20.50
2023-03-29T04:56:51.365Z,20.50
2023-03-29T04:57:53.153Z,20.51
2023-03-29T04:58:54.935Z,20.54
2023-03-29T04:59:56.732Z,20.52
2023-03-29T05:00:58.528Z,20.53
2023-03-29T05:02:00.333Z,20.52
2023-03-29T05:03:02.155Z,20.53
2023-03-29T05:04:03.955Z,20.50
2023-03-29T05:05:05.722Z,20.49
2023-03-29T05:06:07.635Z,20.48
2023-03-29T05:07:09.414Z,20.46
2023-03-29T05:08:11.242Z,20.44
2023-03-29T05:09:12.925Z,20.43
2023-03-29T05:10:14.836Z,20.41
2023-03-29T05:11:16.605Z,20.40
2023-03-29T05:12:18.394Z,20.41
2023-03-29T05:13:20.224Z,20.41
2023-03-29T05:14:22.014Z,20.41
2023-03-29T05:15:23.803Z,20.41
2023-03-29T05:16:25.606Z,20.41
2023-03-29T05:17:27.619Z,20.42
2023-03-29T05:18:29.519Z,20.40
2023-03-29T05:19:31.309Z,20.40
2023-03-29T05:20:33.103Z,20.42
2023-03-29T05:21:34.898Z,20.43
2023-03-29T05:22:36.696Z,20.44
2023-03-29T05:23:38.535Z,20.46
2023-03-29T05:24:40.323Z,20.47
2023-03-29T05:25:42.127Z,20.48
2023-03-29T05:26:44.031Z,20.49
2023-03-29T05:27:45.899Z,20.50
2023-03-29T05:28:47.774Z,20.51
2023-03-29T05:29:49.555Z,20.51
2023-03-29T05:30:51.339Z,20.51
2023-03-29T05:31:53.270Z,20.52
2023-03-29T05:32:55.053Z,20.53
2023-03-29T05:33:56.855Z,20.56
2023-03-29T05:34:58.647Z,20.56
2023-03-29T05:36:00.463Z,20.58
2023-03-29T05:37:02.268Z,20.59
2023-03-29T05:38:04.064Z,20.61
2023-03-29T05:39:05.905Z,20.63
2023-03-29T05:40:08.132Z,20.62
2023-03-29T05:41:09.933Z,20.64
2023-03-29T05:42:11.737Z,20.64
2023-03-29T05:43:13.527Z,20.65
2023-03-29T05:44:15.368Z,20.65
2023-03-29T05:45:17.177Z,20.68
2023-03-29T05:46:19.085Z,20.68
2023-03-29T05:47:20.901Z,20.68
2023-03-29T05:48:22.673Z,20.69
2023-03-29T05:49:24.507Z,20.70
2023-03-29T05:50:26.346Z,20.71
2023-03-29T05:51:28.135Z,20.69
2023-03-29T05:52:29.940Z,20.68
2023-03-29T05:53:34.747Z,20.66
2023-03-29T05:54:36.642Z,20.67
2023-03-29T05:55:38.458Z,20.65
2023-03-29T05:56:40.303Z,20.67
2023-03-29T05:57:42.063Z,20.65
2023-03-29T05:58:43.860Z,20.66
2023-03-29T05:59:45.718Z,20.68
2023-03-29T06:00:47.713Z,20.68
2023-03-29T06:01:49.526Z,20.70
2023-03-29T06:02:51.393Z,20.71
2023-03-29T06:03:53.328Z,20.72
2023-03-29T06:04:55.413Z,20.71
2023-03-29T06:05:57.347Z,20.73
2023-03-29T06:06:59.125Z,20.71
2023-03-29T06:08:00.941Z,20.71
2023-03-29T06:09:02.728Z,20.73
2023-03-29T06:10:04.576Z,20.74
2023-03-29T06:11:06.637Z,20.76
2023-03-29T06:12:08.624Z,20.70
2023-03-29T06:13:10.409Z,20.74
2023-03-29T06:14:12.091Z,20.74
2023-03-29T06:15:13.955Z,20.74
2023-03-29T06:16:15.725Z,20.74
2023-03-29T06:17:17.719Z,20.75
2023-03-29T06:18:19.574Z,20.75
2023-03-29T06:19:21.384Z,20.77
2023-03-29T06:20:23.202Z,20.77
2023-03-29T06:21:25.002Z,20.75
2023-03-29T06:22:26.829Z,20.74
2023-03-29T06:23:28.653Z,20.77
2023-03-29T06:24:30.557Z,20.78
2023-03-29T06:25:32.387Z,20.79
2023-03-29T06:26:34.221Z,20.78
2023-03-29T06:27:36.043Z,20.78
2023-03-29T06:28:37.852Z,20.78
2023-03-29T06:29:39.620Z,20.78
2023-03-29T06:30:41.439Z,20.77
2023-03-29T06:31:43.287Z,20.74
2023-03-29T06:32:45.208Z,20.76
2023-03-29T06:33:47.027Z,20.75
2023-03-29T06:34:48.830Z,20.77
2023-03-29T06:35:50.712Z,20.79
2023-03-29T06:36:52.480Z,20.80
2023-03-29T06:37:54.381Z,20.84
2023-03-29T06:38:56.181Z,20.84
2023-03-29T06:39:58.035Z,20.86
2023-03-29T06:41:00.066Z,20.86
2023-03-29T06:42:10.096Z,20.85
2023-03-29T06:43:05.585Z,20.86
2023-03-29T06:44:07.411Z,20.86
2023-03-29T06:45:09.219Z,20.86
2023-03-29T06:46:11.628Z,20.85
2023-03-29T06:47:13.471Z,20.86
2023-03-29T06:48:15.339Z,20.86
2023-03-29T06:49:17.320Z,20.85
2023-03-29T06:50:19.137Z,20.84
2023-03-29T06:51:23.194Z,20.84
2023-03-29T06:52:24.607Z,20.64
2023-03-29T06:53:26.405Z,20.23
2023-03-29T06:54:28.197Z,19.78
2023-03-29T06:55:30.004Z,19.33
2023-03-29T06:56:31.869Z,18.91
2023-03-29T06:57:33.850Z,18.53
2023-03-29T06:58:35.596Z,18.17
2023-03-29T06:59:37.408Z,17.80
2023-03-29T07:00:39.314Z,17.45
2023-03-29T07:01:41.177Z,17.11
2023-03-29T07:02:43.039Z,16.78
2023-03-29T07:03:46.657Z,16.50
2023-03-29T07:04:48.609Z,16.23
2023-03-29T07:05:50.558Z,15.95
2023-03-29T07:06:52.502Z,15.68
2023-03-29T07:07:54.384Z,15.43
2023-03-29T07:08:56.334Z,15.23
2023-03-29T07:09:58.164Z,15.03
2023-03-29T07:11:00.202Z,14.83
2023-03-29T07:12:02.230Z,14.63
2023-03-29T07:13:04.096Z,14.43
2023-03-29T07:14:05.960Z,14.23
2023-03-29T07:15:07.762Z,14.04
2023-03-29T07:16:09.902Z,13.83
2023-03-29T07:17:11.761Z,13.65
2023-03-29T07:18:13.574Z,13.49
2023-03-29T07:19:15.445Z,13.36
2023-03-29T07:20:17.239Z,13.19
2023-03-29T07:21:19.073Z,13.06
2023-03-29T07:22:20.889Z,12.90
2023-03-29T07:23:22.710Z,12.76
2023-03-29T07:24:24.425Z,12.65
2023-03-29T07:25:26.229Z,12.50
2023-03-29T07:26:28.890Z,12.40
2023-03-29T07:27:31.791Z,12.31
2023-03-29T07:28:33.625Z,12.23
2023-03-29T07:29:35.449Z,12.16
2023-03-29T07:30:37.318Z,12.07
2023-03-29T07:31:39.119Z,12.00
2023-03-29T07:32:41.083Z,11.93
2023-03-29T07:33:43.139Z,11.82
2023-03-29T07:34:44.932Z,11.73
2023-03-29T07:35:46.831Z,11.67
2023-03-29T07:36:48.715Z,11.58
2023-03-29T07:37:50.639Z,11.50
2023-03-29T07:38:53.963Z,11.42
2023-03-29T07:39:56.063Z,11.32
2023-03-29T07:40:57.973Z,11.25
2023-03-29T07:41:59.790Z,11.20
2023-03-29T07:43:02.764Z,11.13
2023-03-29T07:44:04.577Z,11.08
2023-03-29T07:45:06.399Z,11.02
2023-03-29T07:46:08.823Z,10.97
2023-03-29T07:47:10.744Z,10.95
2023-03-29T07:48:12.679Z,10.93
2023-03-29T07:49:14.562Z,10.91
2023-03-29T07:50:16.386Z,10.87
2023-03-29T07:51:18.168Z,10.83
2023-03-29T07:52:20.085Z,10.79
2023-03-29T07:53:21.927Z,10.73
2023-03-29T07:54:23.747Z,10.69
2023-03-29T07:55:25.539Z,10.63
2023-03-29T07:56:27.349Z,10.55
2023-03-29T07:57:29.244Z,10.50
2023-03-29T07:58:31.299Z,10.49
2023-03-29T07:59:33.125Z,10.46
2023-03-29T08:00:34.997Z,10.40
2023-03-29T08:01:36.834Z,10.33
2023-03-29T08:02:38.641Z,10.27
2023-03-29T08:03:40.563Z,10.26
2023-03-29T08:04:42.386Z,10.20
2023-03-29T08:05:44.256Z,10.16
2023-03-29T08:06:46.068Z,10.09
2023-03-29T08:07:47.999Z,10.08
2023-03-29T08:08:49.848Z,10.03
2023-03-29T08:09:51.653Z,10.00
2023-03-29T08:10:53.475Z,10.02
2023-03-29T08:11:55.279Z,10.05
2023-03-29T08:12:57.114Z,10.07
2023-03-29T08:13:58.953Z,10.10
2023-03-29T08:15:00.757Z,10.12
2023-03-29T08:16:02.557Z,10.13
2023-03-29T08:17:04.478Z,10.12
2023-03-29T08:18:06.323Z,10.08
2023-03-29T08:19:08.215Z,10.03
2023-03-29T08:20:10.635Z,10.03
2023-03-29T08:21:12.446Z,9.98
2023-03-29T08:22:14.250Z,9.94
2023-03-29T08:23:16.040Z,9.91
2023-03-29T08:24:20.389Z,9.85
2023-03-29T08:25:21.501Z,9.85
2023-03-29T08:26:23.317Z,9.83
2023-03-29T08:27:25.131Z,9.80
2023-03-29T08:28:26.934Z,9.79
2023-03-29T08:29:28.784Z,9.76
2023-03-29T08:30:30.588Z,9.75
2023-03-29T08:31:32.459Z,9.75
2023-03-29T08:32:34.350Z,9.77
2023-03-29T08:33:36.118Z,9.79
2023-03-29T08:34:37.970Z,9.82
2023-03-29T08:35:39.808Z,9.83
2023-03-29T08:36:41.594Z,9.83
2023-03-29T08:37:43.403Z,9.82
2023-03-29T08:38:45.203Z,9.82
2023-03-29T08:39:47.760Z,9.81
2023-03-29T08:40:49.579Z,9.81
2023-03-29T08:41:51.396Z,9.81
2023-03-29T08:42:53.286Z,9.78
2023-03-29T08:43:55.101Z,9.74
2023-03-29T08:44:56.951Z,9.73
2023-03-29T08:45:58.802Z,9.71
2023-03-29T08:47:00.618Z,9.71
2023-03-29T08:48:02.690Z,9.70
2023-03-29T08:49:04.425Z,9.69
2023-03-29T08:50:06.283Z,9.67
2023-03-29T08:51:09.916Z,9.66
2023-03-29T08:52:11.708Z,9.67
2023-03-29T08:53:13.511Z,9.67
2023-03-29T08:54:15.310Z,9.65
2023-03-29T08:55:17.158Z,9.66
2023-03-29T08:56:18.976Z,9.66
2023-03-29T08:57:20.795Z,9.64
2023-03-29T08:58:22.575Z,9.61
2023-03-29T08:59:24.378Z,9.61
2023-03-29T09:00:26.686Z,9.61
2023-03-29T09:01:28.518Z,9.62
2023-03-29T09:02:30.356Z,9.64
2023-03-29T09:03:32.423Z,9.63
2023-03-29T09:04:34.433Z,9.64
2023-03-29T09:05:36.284Z,9.66
2023-03-29T09:06:38.199Z,9.70
2023-03-29T09:07:40.006Z,9.68
2023-03-29T09:08:41.804Z,9.69
2023-03-29T09:09:43.621Z,9.68
2023-03-29T09:10:45.479Z,9.67
2023-03-29T09:11:47.281Z,9.68
2023-03-29T09:12:49.135Z,9.68
2023-03-29T09:13:51.051Z,9.67
2023-03-29T09:14:53.868Z,9.64
2023-03-29T09:15:55.767Z,9.61
2023-03-29T09:16:57.612Z,9.60
2023-03-29T09:17:59.447Z,9.58
2023-03-29T09:19:01.343Z,9.55
2023-03-29T09:20:03.137Z,9.57
2023-03-29T09:21:04.991Z,9.55
2023-03-29T09:22:06.796Z,9.53
2023-03-29T09:23:08.603Z,9.50
2023-03-29T09:24:10.323Z,9.45
2023-03-29T09:25:12.116Z,9.45
2023-03-29T09:26:14.057Z,9.44
2023-03-29T09:27:15.865Z,9.43
2023-03-29T09:28:17.673Z,9.40
2023-03-29T09:29:19.494Z,9.37
2023-03-29T09:30:21.338Z,9.35
2023-03-29T09:31:23.189Z,9.31
2023-03-29T09:32:24.951Z,9.30
2023-03-29T09:33:26.765Z,9.32
2023-03-29T09:34:28.573Z,9.35
2023-03-29T09:35:30.400Z,9.38
2023-03-29T09:36:32.218Z,9.42
2023-03-29T09:37:34.019Z,9.43
2023-03-29T09:38:35.827Z,9.43
2023-03-29T09:39:37.640Z,9.43
2023-03-29T09:40:39.487Z,9.44
2023-03-29T09:41:41.295Z,9.43
2023-03-29T09:42:43.093Z,9.42
2023-03-29T09:43:44.912Z,9.39
2023-03-29T09:44:46.626Z,9.38
2023-03-29T09:45:48.496Z,9.38
2023-03-29T09:46:50.311Z,9.41
2023-03-29T09:47:52.123Z,9.43
2023-03-29T09:48:53.904Z,9.44
2023-03-29T09:49:55.705Z,9.46
2023-03-29T09:50:57.504Z,9.43
2023-03-29T09:52:17.501Z,9.42
2023-03-29T09:53:22.384Z,9.39
2023-03-29T09:54:24.189Z,9.39
2023-03-29T09:55:26.099Z,9.39
2023-03-29T09:56:28.215Z,9.38
2023-03-29T09:57:30.137Z,9.38
2023-03-29T09:58:31.961Z,9.39
2023-03-29T09:59:33.778Z,9.40
2023-03-29T10:00:35.593Z,9.40
2023-03-29T10:01:37.450Z,9.40
2023-03-29T10:02:39.390Z,9.40
2023-03-29T10:03:41.147Z,9.42
2023-03-29T10:04:42.967Z,9.46
2023-03-29T10:05:44.755Z,9.48
2023-03-29T10:06:46.551Z,9.49
2023-03-29T10:07:48.398Z,9.49
2023-03-29T10:08:50.193Z,9.50
2023-03-29T10:09:52.029Z,9.52
2023-03-29T10:10:53.812Z,9.54
2023-03-29T10:11:55.622Z,9.56
2023-03-29T10:12:57.481Z,9.56
2023-03-29T10:13:59.339Z,9.54
2023-03-29T10:15:01.169Z,9.53
2023-03-29T10:16:02.972Z,9.53
2023-03-29T10:17:04.742Z,9.55
2023-03-29T10:18:06.589Z,9.57
2023-03-29T10:19:08.394Z,9.61
2023-03-29T10:20:10.291Z,9.63
2023-03-29T10:21:12.091Z,9.66
2023-03-29T10:22:13.887Z,9.66
2023-03-29T10:23:15.732Z,9.67
2023-03-29T10:24:17.543Z,9.66
2023-03-29T10:25:19.340Z,9.64
2023-03-29T10:26:21.145Z,9.62
2023-03-29T10:27:23.073Z,9.62
2023-03-29T10:28:24.926Z,9.60
2023-03-29T10:29:26.717Z,9.56
2023-03-29T10:30:28.526Z,9.52
2023-03-29T10:31:30.384Z,9.52
2023-03-29T10:32:32.236Z,9.49
2023-03-29T10:33:34.083Z,9.47
2023-03-29T10:34:35.901Z,9.45
2023-03-29T10:35:37.778Z,9.44
2023-03-29T10:36:39.606Z,9.40
2023-03-29T10:37:41.422Z,9.36
2023-03-29T10:38:43.391Z,9.31
2023-03-29T10:39:45.180Z,9.32
2023-03-29T10:40:47.036Z,9.35
2023-03-29T10:41:48.898Z,9.36
2023-03-29T10:42:50.700Z,9.34
2023-03-29T10:43:52.628Z,9.38
2023-03-29T10:44:54.443Z,9.40
2023-03-29T10:45:56.412Z,9.40
2023-03-29T10:46:58.358Z,9.42
2023-03-29T10:48:00.220Z,9.45
2023-03-29T10:49:02.115Z,9.40
2023-03-29T10:50:06.210Z,9.38
2023-03-29T10:51:08.054Z,9.38
2023-03-29T10:52:09.864Z,9.40
2023-03-29T10:53:11.660Z,9.44
2023-03-29T10:54:13.499Z,9.44
2023-03-29T10:55:15.305Z,9.41
2023-03-29T10:56:17.113Z,9.40
2023-03-29T10:57:20.375Z,9.37
2023-03-29T10:58:22.528Z,9.31
2023-03-29T10:59:24.423Z,9.27
2023-03-29T11:00:26.279Z,9.22
2023-03-29T11:01:28.119Z,9.21
2023-03-29T11:02:29.989Z,9.22
2023-03-29T11:03:31.880Z,9.25
2023-03-29T11:04:34.356Z,9.25
2023-03-29T11:05:36.144Z,9.27
2023-03-29T11:06:37.942Z,9.29
2023-03-29T11:07:39.751Z,9.29
2023-03-29T11:08:41.552Z,9.30
2023-03-29T11:09:43.400Z,9.30
2023-03-29T11:10:45.193Z,9.32
2023-03-29T11:11:46.993Z,9.33
2023-03-29T11:12:48.888Z,9.33
2023-03-29T11:13:50.671Z,9.32
2023-03-29T11:14:52.518Z,9.34
2023-03-29T11:15:54.388Z,9.36
2023-03-29T11:16:56.173Z,9.38
2023-03-29T11:17:58.092Z,9.41
2023-03-29T11:18:59.890Z,9.42
2023-03-29T11:20:03.712Z,9.42
2023-03-29T11:21:08.595Z,9.42
2023-03-29T11:22:09.045Z,9.46
2023-03-29T11:23:11.370Z,9.43
2023-03-29T11:24:13.187Z,9.42
2023-03-29T11:25:15.032Z,9.39
2023-03-29T11:26:16.946Z,9.35
2023-03-29T11:27:18.756Z,9.31
2023-03-29T11:28:20.573Z,9.29
2023-03-29T11:29:22.348Z,9.27
2023-03-29T11:30:24.214Z,9.28
2023-03-29T11:31:26.276Z,9.29
2023-03-29T11:32:28.119Z,9.29
2023-03-29T11:33:29.923Z,9.30
2023-03-29T11:34:31.725Z,9.29
2023-03-29T11:35:33.585Z,9.30
2023-03-29T11:36:35.369Z,9.31
2023-03-29T11:37:37.167Z,9.30
2023-03-29T11:38:38.975Z,9.26
2023-03-29T11:39:40.786Z,9.25
2023-03-29T11:40:42.629Z,9.25
2023-03-29T11:41:44.438Z,9.26
2023-03-29T11:42:46.345Z,9.27
2023-03-29T11:43:48.165Z,9.22
2023-03-29T11:44:50.793Z,9.21
2023-03-29T11:45:53.616Z,9.22
2023-03-29T11:46:55.482Z,9.24
2023-03-29T11:47:57.356Z,9.22
2023-03-29T11:48:59.145Z,9.21
2023-03-29T11:50:00.947Z,9.19
2023-03-29T11:51:02.832Z,9.22
2023-03-29T11:52:04.772Z,9.22
2023-03-29T11:53:06.580Z,9.26
2023-03-29T11:54:08.374Z,9.24
2023-03-29T11:55:10.197Z,9.19
2023-03-29T11:56:12.038Z,9.16
2023-03-29T11:57:13.883Z,9.15
2023-03-29T11:58:15.764Z,9.13
2023-03-29T11:59:17.538Z,9.12
2023-03-29T12:00:19.336Z,9.13
2023-03-29T12:01:21.790Z,9.14
2023-03-29T12:02:23.719Z,9.16
2023-03-29T12:03:25.686Z,9.15
2023-03-29T12:04:27.567Z,9.17
2023-03-29T12:05:29.406Z,9.16
2023-03-29T12:06:31.255Z,9.17
2023-03-29T12:07:33.068Z,9.19
2023-03-29T12:08:34.872Z,9.19
2023-03-29T12:09:36.691Z,9.16
2023-03-29T12:10:38.480Z,9.14
2023-03-29T12:11:40.346Z,9.12
2023-03-29T12:12:42.157Z,9.08
2023-03-29T12:13:43.962Z,9.05
2023-03-29T12:14:45.783Z,9.06
2023-03-29T12:15:47.586Z,9.11
2023-03-29T12:16:49.580Z,9.08
2023-03-29T12:17:51.429Z,9.08
2023-03-29T12:18:53.223Z,9.06
2023-03-29T12:19:55.138Z,9.07
2023-03-29T12:20:56.938Z,9.03
2023-03-29T12:21:58.788Z,9.01
2023-03-29T12:23:00.592Z,9.01
2023-03-29T12:24:02.393Z,8.99
2023-03-29T12:25:04.219Z,9.00
2023-03-29T12:26:06.137Z,8.99
2023-03-29T12:27:07.992Z,9.04
2023-03-29T12:28:09.800Z,9.02
2023-03-29T12:29:11.618Z,9.01
2023-03-29T12:30:13.740Z,9.01
2023-03-29T12:31:15.787Z,9.00
2023-03-29T12:32:17.746Z,9.01
2023-03-29T12:33:19.552Z,9.01
2023-03-29T12:34:21.364Z,8.98
2023-03-29T12:35:23.167Z,9.01
2023-03-29T12:36:24.974Z,9.02
2023-03-29T12:37:26.837Z,8.98
2023-03-29T12:38:30.745Z,8.95
2023-03-29T12:39:32.250Z,8.92
2023-03-29T12:40:34.061Z,8.91
2023-03-29T12:41:35.862Z,8.92
2023-03-29T12:42:37.771Z,8.89
2023-03-29T12:43:39.704Z,8.85
2023-03-29T12:44:41.473Z,8.85
2023-03-29T12:45:43.316Z,8.86
2023-03-29T12:46:45.203Z,8.86
2023-03-29T12:47:47.343Z,8.88
2023-03-29T12:48:49.179Z,8.88
2023-03-29T12:49:51.006Z,8.85
2023-03-29T12:50:52.817Z,8.85
2023-03-29T12:51:54.630Z,8.80
2023-03-29T12:52:56.472Z,8.77
2023-03-29T12:53:58.392Z,8.73
2023-03-29T12:55:00.195Z,8.73
2023-03-29T12:56:02.218Z,8.74
2023-03-29T12:57:04.271Z,8.71
2023-03-29T12:58:06.082Z,8.72
2023-03-29T12:59:07.892Z,8.72
2023-03-29T13:00:09.681Z,8.74
2023-03-29T13:01:11.579Z,8.77
2023-03-29T13:02:13.449Z,8.79
2023-03-29T13:03:15.426Z,8.82
2023-03-29T13:04:17.202Z,8.82
2023-03-29T13:05:19.032Z,8.81
2023-03-29T13:06:20.808Z,8.77
2023-03-29T13:07:22.603Z,8.70
2023-03-29T13:08:24.454Z,8.67
2023-03-29T13:09:26.258Z,8.63
2023-03-29T13:10:28.062Z,8.61
2023-03-29T13:11:29.859Z,8.55
2023-03-29T13:12:33.595Z,8.53
2023-03-29T13:13:35.352Z,8.49
2023-03-29T13:14:37.153Z,8.44
2023-03-29T13:15:38.968Z,8.44
2023-03-29T13:16:40.795Z,8.49
2023-03-29T13:17:44.263Z,8.55
2023-03-29T13:18:46.222Z,8.58
2023-03-29T13:19:48.036Z,8.60
2023-03-29T13:20:49.950Z,8.61
2023-03-29T13:21:51.766Z,8.62
2023-03-29T13:22:53.661Z,8.60
2023-03-29T13:23:55.507Z,8.63
2023-03-29T13:24:57.310Z,8.62
2023-03-29T13:25:59.119Z,8.60
2023-03-29T13:27:00.933Z,8.60
2023-03-29T13:28:02.723Z,8.62